Time;durP1;ratioP1;P1;durP2;ratioP2;P2;SDS_P1;SDS_P2;PMS_P1;PMS_P2;Temp;Humidity;BMP_temperature;BMP_pressure;BME280_temperature;BME280_humidity;BME280_pressure;Samples;Min_cycle;Max_cycle;Signal;HPM_P1;HPM_P2
2023/10/29 00:00:47;;;;;;;;;;;;;;;11.23;100.00;96822.31;5092165;28;19971;-82
2023/10/29 00:03:14;;;;;;;;;;;;;;;11.08;100.00;96812.66;5090386;28;20032;-83
2023/10/29 00:05:41;;;;;;;;;;;;;;;11.27;100.00;96807.25;5090521;28;19978;-83
2023/10/29 00:08:09;;;;;;;;;;;;;;;11.16;100.00;96809.31;5091616;28;19924;-82
2023/10/29 00:10:35;;;;;;;;;;;;;;;11.04;100.00;96822.34;5091510;28;20401;-82
2023/10/29 00:13:04;;;;;;;;;;;;;;;10.91;100.00;96825.75;5076992;28;19931;-83
2023/10/29 00:15:31;;;;;;;;;;;;;;;10.84;100.00;96828.78;5082160;28;19935;-81
2023/10/29 00:17:58;;;;;;;;;;;;;;;10.83;100.00;96818.41;5085387;28;19935;-83
2023/10/29 00:20:24;;;;;;;;;;;;;;;10.74;100.00;96828.13;5091718;28;20379;-83
2023/10/29 00:22:50;;;;;;;;;;;;;;;10.76;100.00;96820.66;5076939;28;20019;-83
2023/10/29 00:25:17;;;;;;;;;;;;;;;10.73;100.00;96822.03;5087321;28;19928;-81
2023/10/29 00:27:43;;;;;;;;;;;;;;;10.65;100.00;96825.34;5091021;28;20394;-84
2023/10/29 00:30:11;;;;;;;;;;;;;;;10.70;100.00;96819.94;5088104;28;19924;-84
2023/10/29 00:32:39;;;;;;;;;;;;;;;10.82;100.00;96830.16;5087050;28;20436;-84
2023/10/29 00:35:05;;;;;;;;;;;;;;;10.82;100.00;96828.31;5087755;28;20039;-83
2023/10/29 00:37:32;;;;;;;;;;;;;;;10.74;100.00;96831.59;5090446;28;19999;-83
2023/10/29 00:39:58;;;;;;;;;;;;;;;10.82;100.00;96835.50;5090643;28;19928;-84
2023/10/29 00:42:24;;;;;;;;;;;;;;;10.87;100.00;96838.09;5090892;28;19963;-85
2023/10/29 00:44:51;;;;;;;;;;;;;;;10.79;100.00;96838.78;5089237;28;20014;-82
2023/10/29 00:47:19;;;;;;;;;;;;;;;10.73;100.00;96835.38;5089417;28;19959;-82
2023/10/29 00:49:46;;;;;;;;;;;;;;;10.62;100.00;96846.47;5090720;28;20408;-82
2023/10/29 00:52:13;;;;;;;;;;;;;;;10.69;100.00;96845.03;5091119;28;20015;-82
2023/10/29 00:54:40;;;;;;;;;;;;;;;10.74;100.00;96852.97;5086926;28;19967;-82
2023/10/29 00:57:06;;;;;;;;;;;;;;;10.73;100.00;96850.59;5091142;28;20015;-84
2023/10/29 00:59:35;;;;;;;;;;;;;;;10.80;100.00;96859.03;5084074;28;19932;-82
2023/10/29 01:02:01;;;;;;;;;;;;;;;10.83;100.00;96856.56;5072365;28;20419;-81
2023/10/29 01:04:29;;;;;;;;;;;;;;;10.84;100.00;96852.03;5086842;28;20391;-83
2023/10/29 01:06:56;;;;;;;;;;;;;;;10.93;100.00;96860.19;5086487;28;20005;-82
2023/10/29 01:09:22;;;;;;;;;;;;;;;10.81;100.00;96860.63;5086167;28;19934;-82
2023/10/29 01:11:48;;;;;;;;;;;;;;;10.95;100.00;96852.69;5081091;28;20406;-83
2023/10/29 01:14:15;;;;;;;;;;;;;;;10.79;100.00;96844.09;5086044;28;20468;-82
2023/10/29 01:16:41;;;;;;;;;;;;;;;10.64;100.00;96839.78;5086091;28;19928;-82
2023/10/29 01:19:07;;;;;;;;;;;;;;;10.58;100.00;96843.63;5090113;28;19924;-83
2023/10/29 01:21:35;;;;;;;;;;;;;;;10.61;100.00;96839.56;5088460;28;19935;-82
2023/10/29 01:24:02;;;;;;;;;;;;;;;10.59;100.00;96833.72;5087393;28;19928;-84
2023/10/29 01:26:28;;;;;;;;;;;;;;;10.51;100.00;96826.34;5084994;28;19934;-82
2023/10/29 01:28:55;;;;;;;;;;;;;;;10.47;100.00;96815.47;5085782;28;20462;-83
2023/10/29 01:31:21;;;;;;;;;;;;;;;10.52;100.00;96820.72;5083983;28;19929;-83
2023/10/29 01:33:47;;;;;;;;;;;;;;;10.47;100.00;96820.00;5086414;28;19934;-81
2023/10/29 01:36:14;;;;;;;;;;;;;;;10.43;100.00;96819.78;5083632;28;19938;-82
2023/10/29 01:38:41;;;;;;;;;;;;;;;10.40;100.00;96820.34;5089405;28;19930;-83
2023/10/29 01:41:08;;;;;;;;;;;;;;;10.40;100.00;96825.69;5100435;28;20014;-82
2023/10/29 01:43:34;;;;;;;;;;;;;;;10.35;100.00;96833.78;5084494;28;20361;-82
2023/10/29 01:46:01;;;;;;;;;;;;;;;10.38;100.00;96835.88;5087390;28;20354;-82
2023/10/29 01:48:27;;;;;;;;;;;;;;;10.44;100.00;96832.06;5088036;28;19931;-82
2023/10/29 01:50:53;;;;;;;;;;;;;;;10.42;100.00;96826.22;5088551;28;20011;-81
2023/10/29 01:53:20;;;;;;;;;;;;;;;10.43;100.00;96835.03;5076719;28;20011;-82
2023/10/29 01:55:48;;;;;;;;;;;;;;;10.41;100.00;96835.28;5075955;28;20030;-83
2023/10/29 01:58:14;;;;;;;;;;;;;;;10.36;100.00;96834.56;5077641;28;20019;-82
2023/10/29 02:00:41;;;;;;;;;;;;;;;10.41;100.00;96829.97;5077357;28;20001;-83
2023/10/29 02:03:08;;;;;;;;;;;;;;;10.43;100.00;96822.44;5086887;28;20007;-83
2023/10/29 02:05:34;;;;;;;;;;;;;;;10.40;100.00;96831.03;5089573;28;20306;-83
2023/10/29 02:08:00;;;;;;;;;;;;;;;10.37;100.00;96825.50;5088556;28;20020;-81
2023/10/29 02:10:27;;;;;;;;;;;;;;;10.36;100.00;96813.22;5089787;28;19966;-82
2023/10/29 02:12:54;;;;;;;;;;;;;;;10.33;100.00;96822.59;5088163;28;20023;-83
2023/10/29 02:15:21;;;;;;;;;;;;;;;10.40;100.00;96820.34;5089320;28;19996;-82
2023/10/29 02:17:47;;;;;;;;;;;;;;;10.36;100.00;96814.03;5085262;28;20455;-82
2023/10/29 02:20:14;;;;;;;;;;;;;;;10.33;100.00;96809.25;5089283;28;19944;-83
2023/10/29 02:22:41;;;;;;;;;;;;;;;10.33;100.00;96800.47;5084251;28;20460;-83
2023/10/29 02:25:08;;;;;;;;;;;;;;;10.37;100.00;96798.81;5087553;28;20433;-81
2023/10/29 02:27:34;;;;;;;;;;;;;;;10.31;100.00;96800.72;5084081;28;20027;-82
2023/10/29 02:30:01;;;;;;;;;;;;;;;10.26;100.00;96796.28;5085356;28;20353;-82
2023/10/29 02:32:27;;;;;;;;;;;;;;;10.27;100.00;96800.50;5085014;28;19938;-83
2023/10/29 02:34:54;;;;;;;;;;;;;;;10.32;100.00;96797.00;5088454;28;19928;-83
2023/10/29 02:37:20;;;;;;;;;;;;;;;10.28;100.00;96793.31;5088401;28;19959;-82
2023/10/29 02:39:48;;;;;;;;;;;;;;;10.27;100.00;96794.41;5083599;28;19928;-83
2023/10/29 02:42:16;;;;;;;;;;;;;;;10.26;100.00;96792.81;5088125;28;19931;-81
2023/10/29 02:44:43;;;;;;;;;;;;;;;10.30;100.00;96789.25;5084514;28;19928;-81
2023/10/29 02:47:10;;;;;;;;;;;;;;;10.37;100.00;96793.47;5085943;28;19924;-81
2023/10/29 02:49:36;;;;;;;;;;;;;;;10.36;100.00;96802.56;5084835;28;19925;-82
2023/10/29 02:52:03;;;;;;;;;;;;;;;10.35;100.00;96812.44;5084931;28;20007;-82
2023/10/29 02:54:29;;;;;;;;;;;;;;;10.27;100.00;96802.41;5103508;28;20010;-82
2023/10/29 02:56:57;;;;;;;;;;;;;;;10.23;100.00;96812.06;5090364;28;20035;-81
2023/10/29 02:59:23;;;;;;;;;;;;;;;10.23;100.00;96810.19;5087429;28;20011;-82
2023/10/29 03:01:49;;;;;;;;;;;;;;;10.17;100.00;96810.53;5086952;28;19928;-81
2023/10/29 03:04:16;;;;;;;;;;;;;;;10.19;100.00;96808.38;5087470;28;19931;-83
2023/10/29 03:06:42;;;;;;;;;;;;;;;10.19;100.00;96806.50;5080492;28;19934;-82
2023/10/29 03:09:09;;;;;;;;;;;;;;;10.17;100.00;96811.34;5074712;28;19950;-82
2023/10/29 03:11:35;;;;;;;;;;;;;;;10.15;100.00;96802.03;5092042;28;19928;-82
2023/10/29 03:14:03;;;;;;;;;;;;;;;10.14;100.00;96806.56;5092219;28;19934;-82
2023/10/29 03:16:30;;;;;;;;;;;;;;;10.08;100.00;96801.56;5078642;28;19931;-82
2023/10/29 03:18:56;;;;;;;;;;;;;;;10.04;100.00;96800.53;5077645;28;20028;-82
2023/10/29 03:21:22;;;;;;;;;;;;;;;10.02;100.00;96813.38;5091947;28;20562;-82
2023/10/29 03:23:49;;;;;;;;;;;;;;;10.05;100.00;96802.13;5091230;28;20467;-82
2023/10/29 03:26:15;;;;;;;;;;;;;;;10.01;100.00;96801.91;5091786;28;19924;-82
2023/10/29 03:28:42;;;;;;;;;;;;;;;10.05;100.00;96804.81;5091755;28;19928;-83
2023/10/29 03:31:13;;;;;;;;;;;;;;;10.04;100.00;96800.53;5090127;28;19928;-82
2023/10/29 03:33:39;;;;;;;;;;;;;;;10.03;100.00;96804.28;5091679;28;20031;-82
2023/10/29 03:36:06;;;;;;;;;;;;;;;10.00;100.00;96794.97;5090564;28;19994;-82
2023/10/29 03:38:32;;;;;;;;;;;;;;;10.06;100.00;96793.03;5088131;28;20010;-82
2023/10/29 03:40:59;;;;;;;;;;;;;;;10.00;100.00;96792.31;5088044;28;19928;-82
2023/10/29 03:43:25;;;;;;;;;;;;;;;9.92;100.00;96786.81;5087930;28;19935;-82
2023/10/29 03:45:51;;;;;;;;;;;;;;;9.89;100.00;96784.72;5085660;28;19928;-82
2023/10/29 03:48:19;;;;;;;;;;;;;;;9.94;100.00;96785.44;5084998;28;19924;-84
2023/10/29 03:50:45;;;;;;;;;;;;;;;10.02;100.00;96798.16;5079745;28;20023;-82
2023/10/29 03:53:12;;;;;;;;;;;;;;;10.02;100.00;96797.38;5090432;28;19978;-82
2023/10/29 03:55:39;;;;;;;;;;;;;;;9.97;100.00;96792.06;5091822;28;20011;-82
2023/10/29 03:58:05;;;;;;;;;;;;;;;9.91;100.00;96793.22;5082414;28;19928;-82
2023/10/29 04:00:32;;;;;;;;;;;;;;;9.91;100.00;96798.56;5089424;28;20035;-82
2023/10/29 04:02:58;;;;;;;;;;;;;;;9.84;100.00;96806.13;5090533;28;19986;-83
2023/10/29 04:05:26;;;;;;;;;;;;;;;9.88;100.00;96807.13;5086621;28;20303;-83
2023/10/29 04:07:53;;;;;;;;;;;;;;;9.94;100.00;96795.31;5089938;28;19931;-82
2023/10/29 04:10:19;;;;;;;;;;;;;;;9.82;100.00;96794.94;5089845;28;19924;-81
2023/10/29 04:12:45;;;;;;;;;;;;;;;9.91;100.00;96790.56;5087318;28;20347;-82
2023/10/29 04:15:12;;;;;;;;;;;;;;;9.86;100.00;96782.63;5090939;28;19934;-82
2023/10/29 04:17:38;;;;;;;;;;;;;;;9.76;100.00;96775.53;5089450;28;19924;-82
2023/10/29 04:20:05;;;;;;;;;;;;;;;9.72;100.00;96769.97;5080315;28;19974;-82
2023/10/29 04:22:33;;;;;;;;;;;;;;;9.74;100.00;96773.19;5085066;28;19928;-81
2023/10/29 04:25:01;;;;;;;;;;;;;;;9.86;100.00;96763.97;5086121;28;19928;-82
2023/10/29 04:27:27;;;;;;;;;;;;;;;9.77;100.00;96761.94;5087243;28;19928;-83
2023/10/29 04:29:53;;;;;;;;;;;;;;;9.74;100.00;96770.50;5087176;28;19928;-81
2023/10/29 04:32:20;;;;;;;;;;;;;;;9.74;100.00;96769.72;5090741;28;19928;-81
2023/10/29 04:34:46;;;;;;;;;;;;;;;9.61;100.00;96776.53;5086912;28;20032;-80
2023/10/29 04:37:12;;;;;;;;;;;;;;;9.58;100.00;96761.09;5089722;28;19924;-81
2023/10/29 04:39:42;;;;;;;;;;;;;;;9.51;100.00;96779.28;5090341;28;19957;-84
2023/10/29 04:42:08;;;;;;;;;;;;;;;9.53;100.00;96769.13;5078188;28;19973;-83
2023/10/29 04:44:35;;;;;;;;;;;;;;;9.52;100.00;96764.91;5086961;28;19975;-82
2023/10/29 04:47:03;;;;;;;;;;;;;;;9.46;100.00;96763.38;5083762;28;19924;-82
2023/10/29 04:49:30;;;;;;;;;;;;;;;9.44;100.00;96778.06;5084806;28;19928;-83
2023/10/29 04:51:56;;;;;;;;;;;;;;;9.37;100.00;96762.41;5089906;28;20423;-83
2023/10/29 04:54:22;;;;;;;;;;;;;;;9.41;100.00;96766.06;5090150;28;19924;-83
2023/10/29 04:56:50;;;;;;;;;;;;;;;9.37;100.00;96764.28;5089859;28;20023;-83
2023/10/29 04:59:16;;;;;;;;;;;;;;;9.30;100.00;96764.59;5088694;28;20548;-82
2023/10/29 05:01:43;;;;;;;;;;;;;;;9.31;100.00;96755.53;5089715;28;20041;-83
2023/10/29 05:04:09;;;;;;;;;;;;;;;9.28;100.00;96757.97;5081828;28;19928;-83
2023/10/29 05:06:35;;;;;;;;;;;;;;;9.20;100.00;96762.84;5086255;28;20404;-82
2023/10/29 05:09:02;;;;;;;;;;;;;;;9.22;100.00;96763.34;5089110;28;19975;-81
2023/10/29 05:11:28;;;;;;;;;;;;;;;9.21;100.00;96764.44;5087411;28;19993;-82
2023/10/29 05:13:56;;;;;;;;;;;;;;;9.21;100.00;96766.28;5089627;28;20653;-82
2023/10/29 05:16:22;;;;;;;;;;;;;;;9.25;100.00;96764.66;5090002;28;19924;-81
2023/10/29 05:18:49;;;;;;;;;;;;;;;9.15;100.00;96751.44;5089965;28;20019;-83
2023/10/29 05:21:15;;;;;;;;;;;;;;;9.10;100.00;96746.94;5089420;28;19932;-81
2023/10/29 05:23:41;;;;;;;;;;;;;;;9.05;100.00;96743.53;5088317;28;20014;-82
2023/10/29 05:26:08;;;;;;;;;;;;;;;9.10;100.00;96740.81;5088379;28;19924;-82
2023/10/29 05:28:34;;;;;;;;;;;;;;;9.13;100.00;96743.72;5089631;28;20000;-83
2023/10/29 05:31:02;;;;;;;;;;;;;;;9.13;100.00;96743.72;5089193;28;20476;-83
2023/10/29 05:33:28;;;;;;;;;;;;;;;9.09;100.00;96741.91;5088715;28;19931;-82
2023/10/29 05:35:57;;;;;;;;;;;;;;;9.07;100.00;96744.03;5085016;28;20025;-82
2023/10/29 05:38:23;;;;;;;;;;;;;;;9.09;100.00;96742.72;5088972;28;19978;-82
2023/10/29 05:40:50;;;;;;;;;;;;;;;9.11;100.00;96753.06;5089048;28;19924;-82
2023/10/29 05:43:16;;;;;;;;;;;;;;;9.10;100.00;96748.81;5088982;28;19932;-82
2023/10/29 05:45:44;;;;;;;;;;;;;;;9.09;100.00;96752.56;5085673;28;20415;-82
2023/10/29 05:48:12;;;;;;;;;;;;;;;9.03;100.00;96754.50;5081764;28;20391;-82
2023/10/29 05:50:39;;;;;;;;;;;;;;;9.10;100.00;96751.47;5087925;28;20019;-82
2023/10/29 05:53:05;;;;;;;;;;;;;;;9.00;100.00;96754.25;5087452;28;20509;-82
2023/10/29 05:55:33;;;;;;;;;;;;;;;8.97;100.00;96747.63;5088969;28;20500;-83
2023/10/29 05:57:59;;;;;;;;;;;;;;;8.91;100.00;96747.94;5078306;28;20473;-82
2023/10/29 06:00:27;;;;;;;;;;;;;;;8.91;100.00;96737.28;5087868;28;20071;-82
2023/10/29 06:02:54;;;;;;;;;;;;;;;8.88;100.00;96745.84;5087361;28;20001;-82
2023/10/29 06:05:21;;;;;;;;;;;;;;;8.83;100.00;96757.31;5087545;28;19924;-81
2023/10/29 06:07:48;;;;;;;;;;;;;;;9.08;100.00;96746.44;5084499;28;20045;-82
2023/10/29 06:10:14;;;;;;;;;;;;;;;8.96;100.00;96753.22;5088773;28;19924;-82
2023/10/29 06:12:41;;;;;;;;;;;;;;;9.00;100.00;96759.56;5085150;28;19923;-82
2023/10/29 06:15:09;;;;;;;;;;;;;;;9.00;100.00;96744.41;5085211;28;19928;-82
2023/10/29 06:17:35;;;;;;;;;;;;;;;9.05;100.00;96748.88;5085131;28;20124;-82
2023/10/29 06:20:03;;;;;;;;;;;;;;;9.20;100.00;96756.69;5088584;28;20026;-83
2023/10/29 06:22:30;;;;;;;;;;;;;;;9.09;100.00;96755.22;5086862;28;20011;-83
2023/10/29 06:24:57;;;;;;;;;;;;;;;9.02;100.00;96742.25;5084984;28;19930;-82
2023/10/29 06:27:23;;;;;;;;;;;;;;;9.16;100.00;96747.69;5084922;28;19928;-81
2023/10/29 06:29:49;;;;;;;;;;;;;;;9.25;100.00;96742.56;5088479;28;19928;-82
2023/10/29 06:32:16;;;;;;;;;;;;;;;9.23;100.00;96748.16;5088374;28;20023;-81
2023/10/29 06:34:42;;;;;;;;;;;;;;;9.25;100.00;96751.34;5087152;28;19935;-82
2023/10/29 06:37:08;;;;;;;;;;;;;;;9.14;100.00;96747.97;5084097;28;19924;-82
2023/10/29 06:39:36;;;;;;;;;;;;;;;9.22;100.00;96750.00;5088062;28;20031;-81
2023/10/29 06:42:02;;;;;;;;;;;;;;;9.17;100.00;96762.59;5087872;28;20417;-82
2023/10/29 06:44:29;;;;;;;;;;;;;;;9.13;100.00;96750.91;5084939;28;20397;-81
2023/10/29 06:46:55;;;;;;;;;;;;;;;9.13;100.00;96751.69;5088373;28;19928;-82
2023/10/29 06:49:21;;;;;;;;;;;;;;;9.21;100.00;96747.66;5087086;28;19924;-82
2023/10/29 06:51:48;;;;;;;;;;;;;;;9.26;100.00;96749.44;5086958;28;20402;-81
2023/10/29 06:54:14;;;;;;;;;;;;;;;9.28;100.00;96758.78;5083812;28;19924;-82
2023/10/29 06:56:42;;;;;;;;;;;;;;;9.37;100.00;96745.63;5081134;28;19936;-82
2023/10/29 06:59:10;;;;;;;;;;;;;;;9.30;100.00;96753.16;5088390;28;19978;-82
2023/10/29 07:01:36;;;;;;;;;;;;;;;9.25;100.00;96761.19;5084652;28;19936;-82
2023/10/29 07:04:03;;;;;;;;;;;;;;;9.27;100.00;96767.81;5088061;28;20018;-82
2023/10/29 07:06:30;;;;;;;;;;;;;;;9.36;100.00;96766.13;5080650;28;19997;-81
2023/10/29 07:08:57;;;;;;;;;;;;;;;9.37;100.00;96765.06;5086909;28;19970;-82
2023/10/29 07:11:23;;;;;;;;;;;;;;;9.45;100.00;96769.75;5075866;28;19924;-83
2023/10/29 07:13:52;;;;;;;;;;;;;;;9.57;100.00;96780.81;5102336;28;19932;-81
2023/10/29 07:16:18;;;;;;;;;;;;;;;9.68;100.00;96779.66;5087408;28;19928;-81
2023/10/29 07:18:45;;;;;;;;;;;;;;;9.69;100.00;96783.88;5093570;28;19931;-82
2023/10/29 07:21:11;;;;;;;;;;;;;;;9.71;100.00;96778.28;5087889;28;19928;-81
2023/10/29 07:23:37;;;;;;;;;;;;;;;9.74;100.00;96781.19;5088471;28;19924;-82
2023/10/29 07:26:04;;;;;;;;;;;;;;;9.96;100.00;96791.31;5086689;28;20015;-81
2023/10/29 07:28:30;;;;;;;;;;;;;;;9.85;100.00;96787.16;5084552;28;19938;-81
2023/10/29 07:30:58;;;;;;;;;;;;;;;9.89;100.00;96792.72;5084417;28;19928;-82
2023/10/29 07:33:24;;;;;;;;;;;;;;;9.86;100.00;96793.28;5084584;28;20015;-81
2023/10/29 07:35:51;;;;;;;;;;;;;;;9.89;100.00;96798.06;5083435;28;19924;-81
2023/10/29 07:38:17;;;;;;;;;;;;;;;9.86;100.00;96787.97;5084558;28;19924;-82
2023/10/29 07:40:44;;;;;;;;;;;;;;;10.01;100.00;96785.09;5083026;28;20393;-82
2023/10/29 07:43:10;;;;;;;;;;;;;;;9.95;100.00;96775.59;5084567;28;19934;-81
2023/10/29 07:45:36;;;;;;;;;;;;;;;9.96;100.00;96767.31;5088277;28;19928;-81
2023/10/29 07:48:04;;;;;;;;;;;;;;;10.00;100.00;96767.50;5086211;28;19924;-81
2023/10/29 07:50:31;;;;;;;;;;;;;;;10.02;100.00;96771.50;5086932;28;19930;-82
2023/10/29 07:52:57;;;;;;;;;;;;;;;10.07;100.00;96763.41;5087761;28;19924;-83
2023/10/29 07:55:23;;;;;;;;;;;;;;;10.11;100.00;96783.13;5089193;28;19924;-82
2023/10/29 07:57:50;;;;;;;;;;;;;;;10.15;100.00;96786.81;5090557;28;20517;-81
2023/10/29 08:00:17;;;;;;;;;;;;;;;10.20;100.00;96784.09;5091730;28;19928;-82
2023/10/29 08:02:44;;;;;;;;;;;;;;;10.27;100.00;96778.41;5091865;28;19924;-83
2023/10/29 08:05:11;;;;;;;;;;;;;;;10.31;100.00;96779.38;5084911;28;19924;-82
2023/10/29 08:07:38;;;;;;;;;;;;;;;10.38;100.00;96779.81;5090191;28;20026;-81
2023/10/29 08:10:04;;;;;;;;;;;;;;;10.38;100.00;96771.81;5089328;28;19967;-82
2023/10/29 08:12:31;;;;;;;;;;;;;;;10.38;100.00;96774.50;5091338;28;19924;-81
2023/10/29 08:14:57;;;;;;;;;;;;;;;10.39;100.00;96768.09;5090146;28;19924;-81
2023/10/29 08:17:24;;;;;;;;;;;;;;;10.47;100.00;96770.09;5089814;28;20011;-81
2023/10/29 08:19:52;;;;;;;;;;;;;;;10.56;100.00;96757.66;5091804;28;20474;-82
2023/10/29 08:22:19;;;;;;;;;;;;;;;10.63;100.00;96749.28;5085943;28;19924;-82
2023/10/29 08:24:46;;;;;;;;;;;;;;;10.71;100.00;96759.28;5090903;28;20536;-82
2023/10/29 08:27:12;;;;;;;;;;;;;;;10.72;100.00;96761.69;5105150;28;20014;-82
2023/10/29 08:29:40;;;;;;;;;;;;;;;10.82;100.00;96761.53;5091633;28;20019;-81
2023/10/29 08:32:06;;;;;;;;;;;;;;;10.88;100.00;96758.78;5088207;28;19928;-81
2023/10/29 08:34:33;;;;;;;;;;;;;;;10.98;100.00;96748.72;5091618;28;20136;-83
2023/10/29 08:36:59;;;;;;;;;;;;;;;11.03;100.00;96753.16;5080554;28;20019;-82
2023/10/29 08:39:27;;;;;;;;;;;;;;;11.09;100.00;96755.47;5084760;28;20035;-83
2023/10/29 08:41:53;;;;;;;;;;;;;;;11.16;100.00;96753.22;5090534;28;20341;-81
2023/10/29 08:44:20;;;;;;;;;;;;;;;11.23;100.00;96766.97;5088938;28;20022;-82
2023/10/29 08:46:46;;;;;;;;;;;;;;;11.26;100.00;96762.94;5090679;28;19935;-81
2023/10/29 08:49:13;;;;;;;;;;;;;;;11.32;100.00;96767.09;5086662;28;19966;-82
2023/10/29 08:51:39;;;;;;;;;;;;;;;11.41;100.00;96754.63;5091045;28;19924;-82
2023/10/29 08:54:06;;;;;;;;;;;;;;;11.45;100.00;96752.94;5089351;28;19944;-83
2023/10/29 08:56:34;;;;;;;;;;;;;;;11.50;100.00;96758.19;5088660;28;19928;-82
2023/10/29 08:59:02;;;;;;;;;;;;;;;11.52;100.00;96753.34;5085941;28;20559;-82
2023/10/29 09:01:28;;;;;;;;;;;;;;;11.53;100.00;96738.09;5089435;28;19967;-82
2023/10/29 09:03:55;;;;;;;;;;;;;;;11.58;100.00;96744.13;5090447;28;20003;-82
2023/10/29 09:06:21;;;;;;;;;;;;;;;11.59;100.00;96758.28;5083582;28;19973;-82
2023/10/29 09:08:48;;;;;;;;;;;;;;;11.58;100.00;96765.53;5087072;28;20015;-82
2023/10/29 09:11:14;;;;;;;;;;;;;;;11.63;100.00;96764.66;5089862;28;19924;-82
2023/10/29 09:13:42;;;;;;;;;;;;;;;11.73;100.00;96775.94;5089995;28;20554;-80
2023/10/29 09:16:09;;;;;;;;;;;;;;;11.75;100.00;96773.78;5086782;28;20023;-82
2023/10/29 09:18:35;;;;;;;;;;;;;;;11.71;100.00;96772.00;5090145;28;19932;-82
2023/10/29 09:21:01;;;;;;;;;;;;;;;11.73;100.00;96778.63;5080805;28;20018;-80
2023/10/29 09:23:29;;;;;;;;;;;;;;;11.77;100.00;96771.59;5090376;28;19928;-80
2023/10/29 09:25:55;;;;;;;;;;;;;;;11.88;100.00;96764.16;5088433;28;19928;-82
2023/10/29 09:28:22;;;;;;;;;;;;;;;11.99;100.00;96764.75;5091523;28;19947;-81
2023/10/29 09:30:49;;;;;;;;;;;;;;;12.00;100.00;96775.16;5092171;28;19923;-81
2023/10/29 09:33:16;;;;;;;;;;;;;;;11.99;100.00;96760.19;5089740;28;19924;-82
2023/10/29 09:35:42;;;;;;;;;;;;;;;12.01;100.00;96766.03;5081917;28;19928;-82
2023/10/29 09:38:09;;;;;;;;;;;;;;;12.05;100.00;96764.34;5089653;28;19924;-81
2023/10/29 09:40:36;;;;;;;;;;;;;;;12.07;100.00;96766.72;5088163;28;19963;-82
2023/10/29 09:43:04;;;;;;;;;;;;;;;12.00;100.00;96772.47;5088724;28;19967;-82
2023/10/29 09:45:32;;;;;;;;;;;;;;;12.03;100.00;96776.44;5082672;28;19939;-82
2023/10/29 09:48:00;;;;;;;;;;;;;;;12.07;100.00;96764.81;5088905;28;19924;-81
2023/10/29 09:50:27;;;;;;;;;;;;;;;12.10;100.00;96776.84;5079345;28;19924;-81
2023/10/29 09:52:54;;;;;;;;;;;;;;;12.16;100.00;96786.34;5085395;28;19946;-83
2023/10/29 09:55:20;;;;;;;;;;;;;;;12.18;100.00;96773.44;5089542;28;19924;-83
2023/10/29 09:57:47;;;;;;;;;;;;;;;12.19;100.00;96785.75;5077011;28;19959;-82
2023/10/29 10:00:15;;;;;;;;;;;;;;;12.23;100.00;96792.06;5087663;28;19989;-82
2023/10/29 10:02:51;;;;;;;;;;;;;;;12.26;100.00;96786.09;5089869;28;19924;-82
2023/10/29 10:05:20;;;;;;;;;;;;;;;12.35;100.00;96795.00;5087888;28;19924;-82
2023/10/29 10:07:46;;;;;;;;;;;;;;;12.38;100.00;96808.59;5086261;28;19927;-81
2023/10/29 10:10:13;;;;;;;;;;;;;;;12.40;100.00;96809.09;5088743;28;19924;-82
2023/10/29 10:12:45;;;;;;;;;;;;;;;12.37;100.00;96815.06;5088414;28;20404;-82
2023/10/29 10:15:13;;;;;;;;;;;;;;;12.31;100.00;96820.81;5082672;28;19943;-81
2023/10/29 10:17:39;;;;;;;;;;;;;;;12.31;100.00;96802.06;5087099;28;19931;-80
2023/10/29 10:20:07;;;;;;;;;;;;;;;12.38;100.00;96811.25;5087288;28;20041;-81
2023/10/29 10:22:35;;;;;;;;;;;;;;;12.50;100.00;96818.00;5088017;28;20482;-82
2023/10/29 10:25:03;;;;;;;;;;;;;;;12.54;100.00;96824.31;5088009;28;19938;-83
2023/10/29 10:27:29;;;;;;;;;;;;;;;12.52;100.00;96821.94;5088401;28;19974;-81
2023/10/29 10:29:55;;;;;;;;;;;;;;;12.55;100.00;96810.63;5087786;28;19930;-82
2023/10/29 10:32:23;;;;;;;;;;;;;;;12.64;100.00;96813.38;5086551;28;19924;-81
2023/10/29 10:34:51;;;;;;;;;;;;;;;12.67;100.00;96796.72;5088332;28;19966;-82
2023/10/29 10:37:17;;;;;;;;;;;;;;;12.69;100.00;96789.94;5087090;28;19924;-83
2023/10/29 10:39:45;;;;;;;;;;;;;;;12.73;100.00;96793.59;5088693;28;19938;-82
2023/10/29 10:42:11;;;;;;;;;;;;;;;12.76;100.00;96790.31;5088555;28;20410;-81
2023/10/29 10:44:42;;;;;;;;;;;;;;;12.82;100.00;96791.78;5088578;28;19931;-82
2023/10/29 10:47:09;;;;;;;;;;;;;;;12.94;100.00;96785.88;5080633;28;19931;-81
2023/10/29 10:49:37;;;;;;;;;;;;;;;13.04;100.00;96784.84;5082741;28;19924;-81
2023/10/29 10:52:04;;;;;;;;;;;;;;;13.09;100.00;96776.72;5088705;28;20689;-82
2023/10/29 10:54:31;;;;;;;;;;;;;;;13.19;100.00;96777.25;5088926;28;19925;-83
2023/10/29 10:57:00;;;;;;;;;;;;;;;13.22;100.00;96778.50;5086990;28;19928;-82
2023/10/29 10:59:26;;;;;;;;;;;;;;;13.35;100.00;96775.75;5088526;28;19997;-81
2023/10/29 11:01:52;;;;;;;;;;;;;;;13.43;100.00;96774.22;5084650;28;19935;-81
2023/10/29 11:04:19;;;;;;;;;;;;;;;13.46;100.00;96765.56;5088231;28;20023;-82
2023/10/29 11:06:45;;;;;;;;;;;;;;;13.56;100.00;96757.22;5088130;28;19930;-82
2023/10/29 11:09:13;;;;;;;;;;;;;;;13.63;100.00;96738.81;5083051;28;20393;-82
2023/10/29 11:11:43;;;;;;;;;;;;;;;13.68;100.00;96735.22;5088612;28;19934;-82
2023/10/29 11:14:12;;;;;;;;;;;;;;;13.81;100.00;96737.75;5088638;28;19924;-80
2023/10/29 11:16:48;;;;;;;;;;;;;;;13.89;100.00;96737.00;5088798;28;20630;-79
2023/10/29 11:19:35;;;;;;;;;;;;;;;13.99;100.00;96731.31;5088351;28;19983;-79
2023/10/29 11:22:15;;;;;;;;;;;;;;;14.14;100.00;96759.63;5088759;28;19963;-81
2023/10/29 11:24:41;;;;;;;;;;;;;;;14.18;100.00;96749.81;5087582;28;19924;-81
2023/10/29 11:27:26;;;;;;;;;;;;;;;14.24;100.00;96763.88;5088579;28;19928;-81
2023/10/29 11:30:09;;;;;;;;;;;;;;;14.33;100.00;96773.56;5087820;28;19931;-81
2023/10/29 11:32:36;;;;;;;;;;;;;;;14.32;100.00;96771.97;5092636;28;19928;-80
2023/10/29 11:35:19;;;;;;;;;;;;;;;14.24;100.00;96770.06;5083083;28;19925;-79
2023/10/29 11:37:45;;;;;;;;;;;;;;;14.24;100.00;96774.63;5099462;28;20022;-80
2023/10/29 11:40:31;;;;;;;;;;;;;;;14.19;100.00;96777.47;5092426;28;19924;-79
2023/10/29 11:42:57;;;;;;;;;;;;;;;14.13;100.00;96797.53;5092102;28;20283;-80
2023/10/29 11:45:41;;;;;;;;;;;;;;;14.15;100.00;96787.25;5092263;28;19930;-78
2023/10/29 11:48:12;;;;;;;;;;;;;;;14.17;100.00;96777.00;5090765;28;20004;-81
2023/10/29 11:50:39;;;;;;;;;;;;;;;14.10;100.00;96772.09;5092287;28;19959;-79
2023/10/29 11:53:06;;;;;;;;;;;;;;;14.15;100.00;96774.63;5086668;28;20016;-80
2023/10/29 11:55:38;;;;;;;;;;;;;;;14.21;100.00;96765.31;5082098;28;19928;-80
2023/10/29 11:58:06;;;;;;;;;;;;;;;14.28;100.00;96768.31;5092057;28;19924;-80
2023/10/29 12:00:37;;;;;;;;;;;;;;;14.36;100.00;96769.50;5091815;28;19931;-80
2023/10/29 12:03:03;;;;;;;;;;;;;;;14.48;100.00;96773.09;5091677;28;20436;-80
2023/10/29 12:05:31;;;;;;;;;;;;;;;14.52;100.00;96773.28;5091773;28;19938;-80
2023/10/29 12:07:58;;;;;;;;;;;;;;;14.48;100.00;96764.28;5089013;28;20387;-81
2023/10/29 12:10:25;;;;;;;;;;;;;;;14.50;100.00;96767.44;5091418;28;19928;-79
2023/10/29 12:12:53;;;;;;;;;;;;;;;14.47;100.00;96751.94;5091738;28;19954;-81
2023/10/29 12:15:19;;;;;;;;;;;;;;;14.48;100.00;96748.16;5091375;28;19924;-82
2023/10/29 12:17:46;;;;;;;;;;;;;;;14.57;100.00;96743.59;5089817;28;20505;-80
2023/10/29 12:20:20;;;;;;;;;;;;;;;14.62;100.00;96742.63;5092407;28;19928;-82
2023/10/29 12:22:53;;;;;;;;;;;;;;;14.69;100.00;96740.25;5077912;28;19928;-81
2023/10/29 12:25:20;;;;;;;;;;;;;;;14.75;100.00;96739.78;5092020;28;19924;-82
2023/10/29 12:27:47;;;;;;;;;;;;;;;14.82;100.00;96742.78;5091177;28;19971;-81
2023/10/29 12:30:28;;;;;;;;;;;;;;;14.80;100.00;96734.22;5091719;28;19954;-81
2023/10/29 12:33:09;;;;;;;;;;;;;;;14.93;100.00;96721.72;5076994;28;19928;-84
2023/10/29 12:35:36;;;;;;;;;;;;;;;14.92;100.00;96720.13;5085416;28;19924;-81
2023/10/29 12:38:03;;;;;;;;;;;;;;;14.98;100.00;96721.53;5076605;28;20154;-82
2023/10/29 12:40:30;;;;;;;;;;;;;;;15.01;100.00;96723.59;5087206;28;19927;-81